createdAt,value
2023-05-13T00:00:58.214Z,1.48
2023-05-13T00:01:58.337Z,1.49
2023-05-13T00:02:58.325Z,1.42
2023-05-13T00:03:58.245Z,1.47
2023-05-13T00:04:58.236Z,1.43
2023-05-13T00:05:58.274Z,1.53
2023-05-13T00:06:58.239Z,1.47
2023-05-13T00:07:58.224Z,1.49
2023-05-13T00:08:58.226Z,1.46
2023-05-13T00:09:58.223Z,1.47
2023-05-13T00:10:58.215Z,1.47
2023-05-13T00:11:58.208Z,1.46
2023-05-13T00:12:58.210Z,1.40
2023-05-13T00:13:58.227Z,1.45
2023-05-13T00:14:58.227Z,1.46
2023-05-13T00:15:58.279Z,1.48
2023-05-13T00:16:58.232Z,1.47
2023-05-13T00:17:58.296Z,1.47
2023-05-13T00:18:58.246Z,1.52
2023-05-13T00:19:58.239Z,1.48
2023-05-13T00:20:58.221Z,1.45
2023-05-13T00:21:58.214Z,1.49
2023-05-13T00:22:58.220Z,1.47
2023-05-13T00:23:58.224Z,1.50
2023-05-13T00:24:58.214Z,1.45
2023-05-13T00:25:58.209Z,1.48
2023-05-13T00:26:58.202Z,1.46
2023-05-13T00:27:58.189Z,1.46
2023-05-13T00:28:58.191Z,1.43
2023-05-13T00:29:58.186Z,1.47
2023-05-13T00:30:58.168Z,1.51
2023-05-13T00:31:58.254Z,1.51
2023-05-13T00:32:58.229Z,1.50
2023-05-13T00:33:58.193Z,1.47
2023-05-13T00:34:58.193Z,1.50
2023-05-13T00:35:58.179Z,1.47
2023-05-13T00:36:58.192Z,1.51
2023-05-13T00:37:58.197Z,1.49
2023-05-13T00:38:58.184Z,1.44
2023-05-13T00:39:58.173Z,1.46
2023-05-13T00:40:58.185Z,1.45
2023-05-13T00:41:58.188Z,1.49
2023-05-13T00:42:58.200Z,1.47
2023-05-13T00:43:58.205Z,1.51
2023-05-13T00:44:58.200Z,1.53
2023-05-13T00:45:58.274Z,1.52
2023-05-13T00:46:58.210Z,1.46
2023-05-13T00:47:58.269Z,1.52
2023-05-13T00:48:58.221Z,1.51
2023-05-13T00:49:58.215Z,1.47
2023-05-13T00:51:19.682Z,0.50
2023-05-13T00:52:19.678Z,0.50
2023-05-13T00:53:19.648Z,0.50
2023-05-13T00:54:19.646Z,0.50
2023-05-13T00:55:19.641Z,0.50
2023-05-13T00:56:19.632Z,0.50
2023-05-13T00:57:19.649Z,0.52
2023-05-13T00:58:19.637Z,0.50
2023-05-13T00:59:19.617Z,0.51
2023-05-13T01:00:19.747Z,0.50
2023-05-13T01:01:19.641Z,0.52
2023-05-13T01:02:19.622Z,0.53
2023-05-13T01:03:19.698Z,0.50
2023-05-13T01:04:19.598Z,0.51
2023-05-13T01:05:19.600Z,0.50
2023-05-13T01:06:26.598Z,0.52
2023-05-13T01:07:19.577Z,0.52
2023-05-13T01:08:19.880Z,0.52
2023-05-13T01:09:19.569Z,0.53
2023-05-13T01:10:19.805Z,0.51
2023-05-13T01:11:20.394Z,0.52
2023-05-13T01:12:19.544Z,0.51
2023-05-13T01:13:19.903Z,0.51
2023-05-13T01:14:19.531Z,0.51
2023-05-13T01:15:19.516Z,0.51
2023-05-13T01:16:19.551Z,0.51
2023-05-13T01:17:19.511Z,0.52
2023-05-13T01:18:19.886Z,0.50
2023-05-13T01:19:19.487Z,0.52
2023-05-13T01:20:19.744Z,0.53
2023-05-13T01:21:19.490Z,0.53
2023-05-13T01:22:19.464Z,0.51
2023-05-13T01:23:19.459Z,0.52
2023-05-13T01:24:19.492Z,0.53
2023-05-13T01:25:19.457Z,0.51
2023-05-13T01:26:19.437Z,0.52
2023-05-13T01:27:19.440Z,0.53
2023-05-13T01:28:19.431Z,0.52
2023-05-13T01:29:19.430Z,0.50
2023-05-13T01:30:19.662Z,0.51
2023-05-13T01:31:19.464Z,0.52
2023-05-13T01:32:19.395Z,0.51
2023-05-13T01:33:19.404Z,0.52
2023-05-13T01:34:19.383Z,0.51
2023-05-13T01:35:19.398Z,0.51
2023-05-13T01:36:19.371Z,0.52
2023-05-13T01:37:19.374Z,0.51
2023-05-13T01:38:19.353Z,0.52
2023-05-13T01:39:19.347Z,0.50
2023-05-13T01:40:31.762Z,0.51
2023-05-13T01:41:20.339Z,0.51
2023-05-13T01:42:19.342Z,0.52
2023-05-13T01:43:19.337Z,0.52
2023-05-13T01:44:19.323Z,0.52
2023-05-13T01:45:19.312Z,0.54
2023-05-13T01:46:19.346Z,0.52
2023-05-13T01:47:19.361Z,0.52
2023-05-13T01:48:19.327Z,0.53
2023-05-13T01:49:19.283Z,0.52
2023-05-13T01:50:19.377Z,0.53
2023-05-13T01:51:19.272Z,0.54
2023-05-13T01:52:19.284Z,0.53
2023-05-13T01:53:19.277Z,0.52
2023-05-13T01:54:19.267Z,0.52
2023-05-13T01:55:19.249Z,0.53
2023-05-13T01:56:19.255Z,0.53
2023-05-13T01:57:19.228Z,0.53
2023-05-13T01:58:19.225Z,0.53
2023-05-13T01:59:19.205Z,0.53
2023-05-13T02:00:19.357Z,0.53
2023-05-13T02:01:21.768Z,0.52
2023-05-13T02:02:19.267Z,0.53
2023-05-13T02:03:19.302Z,0.53
2023-05-13T02:04:19.187Z,0.53
2023-05-13T02:05:19.205Z,0.53
2023-05-13T02:06:19.151Z,0.53
2023-05-13T02:07:19.148Z,0.53
2023-05-13T02:08:19.173Z,0.52
2023-05-13T02:09:19.144Z,0.55
2023-05-13T02:10:19.234Z,0.54
2023-05-13T02:11:19.118Z,0.53
2023-05-13T02:12:19.115Z,0.51
2023-05-13T02:13:19.115Z,0.52
2023-05-13T02:14:19.107Z,0.54
2023-05-13T02:15:19.094Z,0.54
2023-05-13T02:16:19.133Z,0.54
2023-05-13T02:17:19.099Z,0.54
2023-05-13T02:18:19.081Z,0.53
2023-05-13T02:19:19.076Z,0.52
2023-05-13T02:20:19.389Z,0.53
2023-05-13T02:21:19.073Z,0.52
2023-05-13T02:22:19.045Z,0.53
2023-05-13T02:23:19.036Z,0.52
2023-05-13T02:24:19.028Z,0.53
2023-05-13T02:25:19.034Z,0.51
2023-05-13T02:26:19.021Z,0.52
2023-05-13T02:27:19.006Z,0.52
2023-05-13T02:28:19.007Z,0.53
2023-05-13T02:29:19.030Z,0.51
2023-05-13T02:30:19.022Z,0.52
2023-05-13T02:31:19.021Z,0.54
2023-05-13T02:32:18.973Z,0.54
2023-05-13T02:33:18.989Z,0.54
2023-05-13T02:34:18.957Z,0.53
2023-05-13T02:35:18.961Z,0.53
2023-05-13T02:36:18.955Z,0.52
2023-05-13T02:37:18.937Z,0.54
2023-05-13T02:38:18.936Z,0.53
2023-05-13T02:39:18.944Z,0.53
2023-05-13T02:40:19.132Z,0.53
2023-05-13T02:41:18.908Z,0.53
2023-05-13T02:42:18.901Z,0.52
2023-05-13T02:43:18.895Z,0.51
2023-05-13T02:44:18.896Z,0.51
2023-05-13T02:45:18.890Z,0.53
2023-05-13T02:46:18.918Z,0.52
2023-05-13T02:47:18.867Z,0.52
2023-05-13T02:48:18.887Z,0.54
2023-05-13T02:49:18.881Z,0.54
2023-05-13T02:50:18.979Z,0.54
2023-05-13T02:51:18.839Z,0.55
2023-05-13T02:52:18.827Z,0.52
2023-05-13T02:53:18.834Z,0.53
2023-05-13T02:54:18.824Z,0.51
2023-05-13T02:55:18.875Z,0.55
2023-05-13T02:56:18.815Z,0.54
2023-05-13T02:57:18.797Z,0.56
2023-05-13T02:58:18.798Z,0.53
2023-05-13T02:59:18.795Z,0.52
2023-05-13T03:00:18.818Z,0.51
2023-05-13T03:01:18.847Z,0.57
2023-05-13T03:02:18.815Z,0.53
2023-05-13T03:03:18.852Z,0.55
2023-05-13T03:04:18.756Z,0.54
2023-05-13T03:05:18.756Z,0.54
2023-05-13T03:06:18.743Z,0.53
2023-05-13T03:07:18.736Z,0.54
2023-05-13T03:08:18.734Z,0.52
2023-05-13T03:09:18.725Z,0.55
2023-05-13T03:10:18.885Z,0.52
2023-05-13T03:11:18.738Z,0.52
2023-05-13T03:12:18.705Z,0.54
2023-05-13T03:13:18.706Z,0.52
2023-05-13T03:14:18.708Z,0.54
2023-05-13T03:15:18.696Z,0.52
2023-05-13T03:16:18.758Z,0.54
2023-05-13T03:17:18.713Z,0.54
2023-05-13T03:18:18.674Z,0.54
2023-05-13T03:19:18.753Z,0.53
2023-05-13T03:20:18.776Z,0.53
2023-05-13T03:21:18.644Z,0.53
2023-05-13T03:22:18.642Z,0.54
2023-05-13T03:23:18.663Z,0.51
2023-05-13T03:24:18.632Z,0.56
2023-05-13T03:25:18.615Z,0.53
2023-05-13T03:26:18.623Z,0.53
2023-05-13T03:27:18.605Z,0.52
2023-05-13T03:28:18.611Z,0.54
2023-05-13T03:29:18.591Z,0.53
2023-05-13T03:30:18.732Z,0.52
2023-05-13T03:31:18.624Z,0.52
2023-05-13T03:32:18.609Z,0.55
2023-05-13T03:33:18.629Z,0.53
2023-05-13T03:34:18.552Z,0.51
2023-05-13T03:35:18.537Z,0.55
2023-05-13T03:36:18.526Z,0.54
2023-05-13T03:37:18.549Z,0.53
2023-05-13T03:38:18.552Z,0.55
2023-05-13T03:39:18.532Z,0.52
2023-05-13T03:40:18.603Z,0.53
2023-05-13T03:41:18.523Z,0.51
2023-05-13T03:42:18.504Z,0.56
2023-05-13T03:43:18.498Z,0.52
2023-05-13T03:44:18.481Z,0.54
2023-05-13T03:45:18.491Z,0.55
2023-05-13T03:46:18.555Z,0.52
2023-05-13T03:47:18.452Z,0.54
2023-05-13T03:48:18.461Z,0.54
2023-05-13T03:49:18.449Z,0.54
2023-05-13T03:50:18.437Z,0.55
2023-05-13T03:51:18.422Z,0.54
2023-05-13T03:52:18.426Z,0.56
2023-05-13T03:53:18.422Z,0.54
2023-05-13T03:54:18.413Z,0.53
2023-05-13T03:55:18.401Z,0.51
2023-05-13T03:56:18.393Z,0.53
2023-05-13T03:57:18.395Z,0.53
2023-05-13T03:58:18.413Z,0.54
2023-05-13T03:59:18.383Z,0.54
2023-05-13T04:00:18.446Z,0.52
2023-05-13T04:01:18.360Z,0.50
2023-05-13T04:02:18.476Z,0.53
2023-05-13T04:03:18.383Z,0.53
2023-05-13T04:04:18.340Z,0.54
2023-05-13T04:05:18.359Z,0.54
2023-05-13T04:06:18.335Z,0.53
2023-05-13T04:07:18.316Z,0.51
2023-05-13T04:08:18.310Z,0.53
2023-05-13T04:09:18.317Z,0.50
2023-05-13T04:10:18.364Z,0.53
2023-05-13T04:11:18.284Z,0.54
2023-05-13T04:12:18.291Z,0.54
2023-05-13T04:13:18.306Z,0.53
2023-05-13T04:14:18.273Z,0.53
2023-05-13T04:15:18.258Z,0.54
2023-05-13T04:16:18.290Z,0.54
2023-05-13T04:17:18.268Z,0.53
2023-05-13T04:18:18.260Z,0.54
2023-05-13T04:19:18.243Z,0.54
2023-05-13T04:20:18.230Z,0.52
2023-05-13T04:21:18.220Z,0.54
2023-05-13T04:22:18.212Z,0.53
2023-05-13T04:23:18.205Z,0.57
2023-05-13T04:24:18.205Z,0.53
2023-05-13T04:25:18.202Z,0.54
2023-05-13T04:26:18.176Z,0.54
2023-05-13T04:27:18.172Z,0.53
2023-05-13T04:28:18.163Z,0.51
2023-05-13T04:29:18.168Z,0.51
2023-05-13T04:30:18.181Z,0.54
2023-05-13T04:31:18.228Z,0.53
2023-05-13T04:32:18.173Z,0.53
2023-05-13T04:33:18.137Z,0.52
2023-05-13T04:34:18.129Z,0.51
2023-05-13T04:35:18.109Z,0.53
2023-05-13T04:36:18.104Z,0.52
2023-05-13T04:37:18.118Z,0.53
2023-05-13T04:38:18.083Z,0.55
2023-05-13T04:39:18.076Z,0.53
2023-05-13T04:40:18.089Z,0.52
2023-05-13T04:41:18.067Z,0.55
2023-05-13T04:42:18.060Z,0.55
2023-05-13T04:43:18.060Z,0.54
2023-05-13T04:44:18.053Z,0.52
2023-05-13T04:45:18.044Z,0.56
2023-05-13T04:46:18.089Z,0.52
2023-05-13T04:47:18.029Z,0.54
2023-05-13T04:48:18.041Z,0.53
2023-05-13T04:49:18.029Z,0.54
2023-05-13T04:50:18.046Z,0.53
2023-05-13T04:51:18.032Z,0.53
2023-05-13T04:52:17.999Z,0.53
2023-05-13T04:53:18.022Z,0.53
2023-05-13T04:54:17.969Z,0.54
2023-05-13T04:55:17.966Z,0.56
2023-05-13T04:56:17.967Z,0.53
2023-05-13T04:57:17.979Z,0.54
2023-05-13T04:58:17.964Z,0.52
2023-05-13T04:59:17.942Z,0.53
2023-05-13T05:00:17.933Z,0.52
2023-05-13T05:01:17.955Z,0.53
2023-05-13T05:02:17.931Z,0.54
2023-05-13T05:03:17.911Z,0.53
2023-05-13T05:04:17.982Z,0.51
2023-05-13T05:05:18.677Z,0.55
2023-05-13T05:06:17.897Z,0.53
2023-05-13T05:07:17.883Z,0.54
2023-05-13T05:08:17.876Z,0.52
2023-05-13T05:09:17.889Z,0.52
2023-05-13T05:10:17.859Z,0.52
2023-05-13T05:11:17.866Z,0.54
2023-05-13T05:12:17.860Z,0.52
2023-05-13T05:13:17.836Z,0.54
2023-05-13T05:14:17.833Z,0.54
2023-05-13T05:15:17.839Z,0.54
2023-05-13T05:16:17.829Z,0.56
2023-05-13T05:17:17.871Z,0.55
2023-05-13T05:18:17.861Z,0.52
2023-05-13T05:19:17.903Z,0.54
2023-05-13T05:20:17.802Z,0.54
2023-05-13T05:21:17.787Z,0.53
2023-05-13T05:22:17.786Z,0.54
2023-05-13T05:23:17.781Z,0.51
2023-05-13T05:24:17.787Z,0.54
2023-05-13T05:25:17.761Z,0.55
2023-05-13T05:26:17.773Z,0.52
2023-05-13T05:27:17.769Z,0.52
2023-05-13T05:28:17.746Z,0.53
2023-05-13T05:29:17.729Z,0.53
2023-05-13T05:30:17.724Z,0.51
2023-05-13T05:31:17.757Z,0.52
2023-05-13T05:32:17.713Z,0.53
2023-05-13T05:33:17.738Z,0.53
2023-05-13T05:34:17.703Z,0.53
2023-05-13T05:35:17.702Z,0.54
2023-05-13T05:36:17.734Z,0.51
2023-05-13T05:37:17.712Z,0.54
2023-05-13T05:38:17.674Z,0.53
2023-05-13T05:39:17.698Z,0.53
2023-05-13T05:40:17.655Z,0.53
2023-05-13T05:41:17.645Z,0.52
2023-05-13T05:42:17.655Z,0.53
2023-05-13T05:43:17.671Z,0.53
2023-05-13T05:44:17.661Z,0.53
2023-05-13T05:45:17.620Z,0.52
2023-05-13T05:46:17.701Z,0.52
2023-05-13T05:47:17.609Z,0.54
2023-05-13T05:48:17.608Z,0.53
2023-05-13T05:49:17.601Z,0.51
2023-05-13T05:50:17.613Z,0.53
2023-05-13T05:51:17.584Z,0.53
2023-05-13T05:52:17.588Z,0.54
2023-05-13T05:53:17.584Z,0.53
2023-05-13T05:54:17.571Z,0.53
2023-05-13T05:55:17.548Z,0.55
2023-05-13T05:56:17.579Z,0.53
2023-05-13T05:57:17.556Z,0.52
2023-05-13T05:58:17.541Z,0.54
2023-05-13T05:59:17.526Z,0.54
2023-05-13T06:00:17.517Z,0.52
2023-05-13T06:01:17.556Z,0.54
2023-05-13T06:02:17.569Z,0.51
2023-05-13T06:03:17.657Z,0.52
2023-05-13T06:04:17.587Z,0.53
2023-05-13T06:05:17.511Z,0.53
2023-05-13T06:06:17.480Z,0.52
2023-05-13T06:07:17.637Z,0.55
2023-05-13T06:08:17.470Z,0.54
2023-05-13T06:09:17.488Z,0.53
2023-05-13T06:10:17.498Z,0.53
2023-05-13T06:11:17.457Z,0.54
2023-05-13T06:12:17.453Z,0.53
2023-05-13T06:13:17.447Z,0.55
2023-05-13T06:14:17.426Z,0.54
2023-05-13T06:15:17.414Z,0.53
2023-05-13T06:16:17.497Z,0.53
2023-05-13T06:17:17.423Z,0.52
2023-05-13T06:18:17.416Z,0.53
2023-05-13T06:19:17.439Z,0.53
2023-05-13T06:20:17.404Z,0.54
2023-05-13T06:21:17.429Z,0.54
2023-05-13T06:22:17.371Z,0.52
2023-05-13T06:23:17.368Z,0.52
2023-05-13T06:24:17.462Z,0.54
2023-05-13T06:25:17.351Z,0.51
2023-05-13T06:26:17.356Z,0.52
2023-05-13T06:27:17.407Z,0.52
2023-05-13T06:28:17.349Z,0.53
2023-05-13T06:29:17.343Z,0.53
2023-05-13T06:30:17.368Z,0.53
2023-05-13T06:31:18.981Z,0.52
2023-05-13T06:32:18.032Z,0.53
2023-05-13T06:33:17.321Z,0.53
2023-05-13T06:34:17.332Z,0.52
2023-05-13T06:35:17.293Z,0.51
2023-05-13T06:36:17.314Z,0.53
2023-05-13T06:37:17.282Z,0.53
2023-05-13T06:38:17.315Z,0.52
2023-05-13T06:39:17.307Z,0.53
2023-05-13T06:40:17.280Z,0.53
2023-05-13T06:41:17.288Z,0.54
2023-05-13T06:42:17.263Z,0.51
2023-05-13T06:43:17.224Z,0.53
2023-05-13T06:44:17.235Z,0.52
2023-05-13T06:45:17.240Z,0.52
2023-05-13T06:46:17.248Z,0.52
2023-05-13T06:47:17.246Z,0.52
2023-05-13T06:48:17.206Z,0.53
2023-05-13T06:49:17.230Z,0.51
2023-05-13T06:50:17.184Z,0.54
2023-05-13T06:51:17.177Z,0.53
2023-05-13T06:52:17.188Z,0.51
2023-05-13T06:53:17.200Z,0.52
2023-05-13T06:54:17.173Z,0.52
2023-05-13T06:55:17.174Z,0.54
2023-05-13T06:56:19.245Z,0.52
2023-05-13T06:57:17.145Z,0.55
2023-05-13T06:58:17.168Z,0.53
2023-05-13T06:59:17.177Z,0.52
2023-05-13T07:00:17.144Z,0.52
2023-05-13T07:01:17.186Z,0.51
2023-05-13T07:02:17.107Z,0.53
2023-05-13T07:03:17.146Z,0.53
2023-05-13T07:04:17.201Z,0.53
2023-05-13T07:05:17.073Z,0.52
2023-05-13T07:06:17.060Z,0.51
2023-05-13T07:07:17.047Z,0.52
2023-05-13T07:08:17.048Z,0.52
2023-05-13T07:09:17.047Z,0.52
2023-05-13T07:10:17.086Z,0.52
2023-05-13T07:11:17.032Z,0.53
2023-05-13T07:12:17.026Z,0.52
2023-05-13T07:13:17.015Z,0.52
2023-05-13T07:14:17.005Z,0.52
2023-05-13T07:15:17.004Z,0.53
2023-05-13T07:16:16.999Z,0.52
2023-05-13T07:17:17.165Z,0.52
2023-05-13T07:18:17.006Z,0.51
2023-05-13T07:19:17.018Z,0.52
2023-05-13T07:20:16.963Z,0.53
2023-05-13T07:21:16.961Z,0.51
2023-05-13T07:22:16.959Z,0.52
2023-05-13T07:23:16.930Z,0.53
2023-05-13T07:24:16.937Z,0.52
2023-05-13T07:25:16.931Z,0.52
2023-05-13T07:26:16.932Z,0.52
2023-05-13T07:27:16.906Z,0.53
2023-05-13T07:28:16.906Z,0.53
2023-05-13T07:29:16.903Z,0.52
2023-05-13T07:30:16.896Z,0.52
2023-05-13T07:31:16.933Z,0.52
2023-05-13T07:32:16.870Z,0.53
2023-05-13T07:33:16.903Z,0.53
2023-05-13T07:34:16.881Z,0.54
2023-05-13T07:35:16.853Z,0.53
2023-05-13T07:36:16.854Z,0.53
2023-05-13T07:37:16.835Z,0.53
2023-05-13T07:38:16.840Z,0.53
2023-05-13T07:39:16.830Z,0.52
2023-05-13T07:40:16.818Z,0.52
2023-05-13T07:41:16.817Z,0.52
2023-05-13T07:42:16.798Z,0.53
2023-05-13T07:43:16.798Z,0.52
2023-05-13T07:44:16.810Z,0.54
2023-05-13T07:45:16.803Z,0.52
2023-05-13T07:46:16.777Z,0.52
2023-05-13T07:47:16.842Z,0.53
2023-05-13T07:48:16.763Z,0.52
2023-05-13T07:49:16.780Z,0.52
2023-05-13T07:50:16.749Z,0.51
2023-05-13T07:51:16.788Z,0.52
2023-05-13T07:52:16.745Z,0.52
2023-05-13T07:53:19.091Z,0.52
2023-05-13T07:54:16.767Z,0.53
2023-05-13T07:55:16.758Z,0.52
2023-05-13T07:56:16.754Z,0.52
2023-05-13T07:57:16.750Z,0.51
2023-05-13T07:58:16.746Z,0.50
2023-05-13T07:59:16.732Z,0.51
2023-05-13T08:00:16.719Z,0.50
2023-05-13T08:01:16.717Z,0.51
2023-05-13T08:02:16.712Z,0.52
2023-05-13T08:03:16.841Z,0.50
2023-05-13T08:04:16.858Z,0.51
2023-05-13T08:05:16.702Z,0.51
2023-05-13T08:06:16.675Z,0.52
2023-05-13T08:07:16.676Z,0.51
2023-05-13T08:08:16.667Z,0.51
2023-05-13T08:09:16.675Z,0.51
2023-05-13T08:10:16.642Z,0.51
2023-05-13T08:11:16.644Z,0.51
2023-05-13T08:12:16.636Z,0.51
2023-05-13T08:13:16.622Z,0.51
2023-05-13T08:14:16.626Z,0.51
2023-05-13T08:15:16.658Z,0.51
2023-05-13T08:16:16.630Z,0.51
2023-05-13T08:17:16.603Z,0.51
2023-05-13T08:18:16.595Z,0.51
2023-05-13T08:19:16.672Z,0.51
2023-05-13T08:20:16.587Z,0.51
2023-05-13T08:21:16.586Z,0.51
2023-05-13T08:22:16.569Z,0.51
2023-05-13T08:23:16.589Z,0.50
2023-05-13T08:24:16.551Z,0.51
2023-05-13T08:25:16.573Z,0.51
2023-05-13T08:26:16.549Z,0.52
2023-05-13T08:27:16.527Z,0.51
2023-05-13T08:28:16.525Z,0.51
2023-05-13T08:29:16.534Z,0.52
2023-05-13T08:30:16.534Z,0.51
2023-05-13T08:31:16.582Z,0.51
2023-05-13T08:32:16.653Z,0.51
2023-05-13T08:33:16.609Z,0.51
2023-05-13T08:34:16.674Z,0.50
2023-05-13T08:35:16.716Z,0.51
2023-05-13T08:36:16.765Z,0.51
2023-05-13T08:37:16.831Z,0.51
2023-05-13T08:38:16.900Z,0.51
2023-05-13T08:39:16.918Z,0.52
2023-05-13T08:40:16.985Z,0.51
2023-05-13T08:41:17.055Z,0.51
2023-05-13T08:42:17.069Z,0.52
2023-05-13T08:43:17.161Z,0.52
2023-05-13T08:44:17.164Z,0.53
2023-05-13T08:45:17.233Z,0.51
2023-05-13T08:46:17.312Z,0.52
2023-05-13T08:47:17.320Z,0.51
2023-05-13T08:48:17.420Z,0.50
2023-05-13T08:49:17.415Z,0.51
2023-05-13T08:50:17.472Z,0.51
2023-05-13T08:51:17.505Z,0.52
2023-05-13T08:52:17.556Z,0.52
2023-05-13T08:53:17.609Z,0.52
2023-05-13T08:54:17.660Z,0.51
2023-05-13T08:55:17.716Z,0.50
2023-05-13T08:56:17.748Z,0.51
2023-05-13T08:57:17.810Z,0.51
2023-05-13T08:58:17.836Z,0.51
2023-05-13T08:59:17.907Z,0.52
2023-05-13T09:00:20.655Z,0.50
2023-05-13T09:01:17.944Z,0.52
2023-05-13T09:02:17.940Z,0.51
2023-05-13T09:03:17.923Z,0.52
2023-05-13T09:04:17.909Z,0.50
2023-05-13T09:05:17.964Z,0.52
2023-05-13T09:06:17.894Z,0.52
2023-05-13T09:07:17.891Z,0.52
2023-05-13T09:08:17.879Z,0.51
2023-05-13T09:09:17.879Z,0.51
2023-05-13T09:10:17.873Z,0.52
2023-05-13T09:11:17.861Z,0.50
2023-05-13T09:12:17.849Z,0.51
2023-05-13T09:13:17.868Z,0.51
2023-05-13T09:14:17.845Z,0.51
2023-05-13T09:15:17.874Z,0.51
2023-05-13T09:16:17.830Z,0.51
2023-05-13T09:17:17.827Z,0.51
2023-05-13T09:18:19.009Z,0.51
2023-05-13T09:19:17.908Z,0.52
2023-05-13T09:20:17.797Z,0.51
2023-05-13T09:21:17.803Z,0.51
2023-05-13T09:22:17.788Z,0.51
2023-05-13T09:23:17.784Z,0.51
2023-05-13T09:24:17.764Z,0.51
2023-05-13T09:25:17.774Z,0.51
2023-05-13T09:26:17.759Z,0.51
2023-05-13T09:27:17.752Z,0.51
2023-05-13T09:28:17.744Z,0.52
2023-05-13T09:29:17.828Z,0.50
2023-05-13T09:30:17.737Z,0.51
2023-05-13T09:31:17.734Z,0.51
2023-05-13T09:32:17.716Z,0.52
2023-05-13T09:33:17.761Z,0.52
2023-05-13T09:34:17.718Z,0.52
2023-05-13T09:35:17.722Z,0.52
2023-05-13T09:36:17.688Z,0.52
2023-05-13T09:37:17.747Z,0.52
2023-05-13T09:38:17.767Z,0.53
2023-05-13T09:39:17.842Z,0.51
2023-05-13T09:40:17.860Z,0.52
2023-05-13T09:41:17.889Z,0.52
2023-05-13T09:42:17.936Z,0.52
2023-05-13T09:43:18.001Z,0.52
2023-05-13T09:44:18.046Z,0.51
2023-05-13T09:45:18.081Z,0.53
2023-05-13T09:46:18.188Z,0.52
2023-05-13T09:47:18.244Z,0.52
2023-05-13T09:48:18.177Z,0.52
2023-05-13T09:49:18.230Z,0.52
2023-05-13T09:50:18.291Z,0.52
2023-05-13T09:51:18.317Z,0.52
2023-05-13T09:52:18.363Z,0.53
2023-05-13T09:53:18.399Z,0.52
2023-05-13T09:54:18.437Z,0.52
2023-05-13T09:55:18.545Z,0.52
2023-05-13T09:56:18.522Z,0.52
2023-05-13T09:57:18.545Z,0.51
2023-05-13T09:58:18.595Z,0.52
2023-05-13T09:59:18.690Z,0.51
2023-05-13T10:00:31.748Z,0.53
2023-05-13T10:01:19.683Z,0.53
2023-05-13T10:02:18.690Z,0.53
2023-05-13T10:03:18.648Z,0.53
2023-05-13T10:04:18.731Z,0.52
2023-05-13T10:05:18.645Z,0.52
2023-05-13T10:06:18.622Z,0.51
2023-05-13T10:07:18.625Z,0.51
2023-05-13T10:08:18.621Z,0.52
2023-05-13T10:09:18.616Z,0.52
2023-05-13T10:10:18.692Z,0.52
2023-05-13T10:11:18.593Z,0.52
2023-05-13T10:12:18.622Z,0.51
2023-05-13T10:13:18.670Z,0.52
2023-05-13T10:14:18.707Z,0.51
2023-05-13T10:15:18.769Z,0.52
2023-05-13T10:16:18.816Z,0.51
2023-05-13T10:17:18.843Z,0.51
2023-05-13T10:18:18.912Z,0.51
2023-05-13T10:19:19.022Z,0.51
2023-05-13T10:20:18.997Z,0.52
2023-05-13T10:21:18.992Z,0.51
2023-05-13T10:22:19.029Z,0.50
2023-05-13T10:23:19.084Z,0.50
2023-05-13T10:24:19.091Z,0.52
2023-05-13T10:25:19.142Z,0.52
2023-05-13T10:26:19.168Z,0.52
2023-05-13T10:27:19.204Z,0.51
2023-05-13T10:28:19.239Z,0.52
2023-05-13T10:29:19.278Z,0.52
2023-05-13T10:30:19.382Z,0.52
2023-05-13T10:31:19.363Z,0.53
2023-05-13T10:32:19.457Z,0.52
2023-05-13T10:33:19.469Z,0.52
2023-05-13T10:34:19.468Z,0.52
2023-05-13T10:35:19.527Z,0.51
2023-05-13T10:36:19.532Z,0.51
2023-05-13T10:37:19.616Z,0.51
2023-05-13T10:38:19.607Z,0.52
2023-05-13T10:39:19.674Z,0.53
2023-05-13T10:40:20.047Z,0.52
2023-05-13T10:41:19.719Z,0.52
2023-05-13T10:42:19.760Z,0.51
2023-05-13T10:43:19.805Z,0.52
2023-05-13T10:44:19.851Z,0.52
2023-05-13T10:45:19.897Z,0.52
2023-05-13T10:46:19.975Z,0.53
2023-05-13T10:47:20.019Z,0.51
2023-05-13T10:48:20.118Z,0.50
2023-05-13T10:49:20.062Z,0.52
2023-05-13T10:50:20.300Z,0.52
2023-05-13T10:51:20.166Z,0.53
2023-05-13T10:52:20.203Z,0.52
2023-05-13T10:53:20.225Z,0.52
2023-05-13T10:54:20.292Z,0.52
2023-05-13T10:55:20.372Z,0.51
2023-05-13T10:56:20.371Z,0.52
2023-05-13T10:57:20.394Z,0.53
2023-05-13T10:58:20.428Z,0.53
2023-05-13T10:59:20.479Z,0.54
2023-05-13T11:00:20.668Z,0.52
2023-05-13T11:01:20.626Z,0.52
2023-05-13T11:02:20.662Z,0.54
2023-05-13T11:03:20.716Z,0.51
2023-05-13T11:04:20.688Z,0.54
2023-05-13T11:05:20.742Z,0.53
2023-05-13T11:06:20.790Z,0.53
2023-05-13T11:07:20.851Z,0.53
2023-05-13T11:08:20.887Z,0.54
2023-05-13T11:09:20.932Z,0.54
2023-05-13T11:10:21.203Z,0.53
2023-05-13T11:11:21.032Z,0.53
2023-05-13T11:12:21.062Z,0.54
2023-05-13T11:13:21.099Z,0.53
2023-05-13T11:14:21.157Z,0.53
2023-05-13T11:15:21.206Z,0.53
2023-05-13T11:16:21.265Z,0.52
2023-05-13T11:17:21.252Z,0.53
2023-05-13T11:18:21.311Z,0.52
2023-05-13T11:19:21.331Z,0.51
2023-05-13T11:20:21.501Z,0.52
2023-05-13T11:21:21.426Z,0.52
2023-05-13T11:22:21.452Z,0.52
2023-05-13T11:23:21.480Z,0.52
2023-05-13T11:24:21.533Z,0.52
2023-05-13T11:25:21.592Z,0.51
2023-05-13T11:26:21.624Z,0.52
2023-05-13T11:27:21.662Z,0.52
2023-05-13T11:28:21.693Z,0.52
2023-05-13T11:29:21.740Z,0.52
2023-05-13T11:30:22.122Z,0.53
2023-05-13T11:31:21.816Z,0.53
2023-05-13T11:32:21.863Z,0.51
2023-05-13T11:33:21.893Z,0.53
2023-05-13T11:34:21.949Z,0.52
2023-05-13T11:35:21.972Z,0.53
2023-05-13T11:36:22.025Z,0.53
2023-05-13T11:37:22.060Z,0.52
2023-05-13T11:38:22.142Z,0.52
2023-05-13T11:39:22.150Z,0.52
2023-05-13T11:40:22.312Z,0.52
2023-05-13T11:41:22.229Z,0.52
2023-05-13T11:42:22.274Z,0.51
2023-05-13T11:43:22.318Z,0.52
2023-05-13T11:44:22.357Z,0.50
2023-05-13T11:45:22.506Z,0.51
2023-05-13T11:46:22.494Z,0.52
2023-05-13T11:47:22.475Z,0.51
2023-05-13T11:48:22.523Z,0.52
2023-05-13T11:49:22.545Z,0.52
2023-05-13T11:50:22.579Z,0.52
2023-05-13T11:51:22.614Z,0.53
2023-05-13T11:52:22.642Z,0.52
2023-05-13T11:53:22.819Z,0.52
2023-05-13T11:54:22.724Z,0.51
2023-05-13T11:55:22.897Z,0.52
2023-05-13T11:56:22.778Z,0.53
2023-05-13T11:57:22.815Z,0.52
2023-05-13T11:58:22.849Z,0.52
2023-05-13T11:59:22.866Z,0.52
2023-05-13T12:00:22.924Z,0.52
2023-05-13T12:01:22.950Z,0.51
2023-05-13T12:02:22.991Z,0.52
2023-05-13T12:03:23.023Z,0.52
2023-05-13T12:04:23.014Z,0.52
2023-05-13T12:05:23.444Z,0.52
2023-05-13T12:06:23.094Z,0.52
2023-05-13T12:07:23.113Z,0.53
2023-05-13T12:08:23.757Z,0.52
2023-05-13T12:09:23.246Z,0.53
2023-05-13T12:10:23.232Z,0.52
2023-05-13T12:11:23.258Z,0.53
2023-05-13T12:12:23.284Z,0.52
2023-05-13T12:13:23.339Z,0.52
2023-05-13T12:14:23.722Z,0.52
2023-05-13T12:15:23.662Z,0.52
2023-05-13T12:16:23.440Z,0.53
2023-05-13T12:17:23.482Z,0.52
2023-05-13T12:18:23.505Z,0.52
2023-05-13T12:19:23.513Z,0.52
2023-05-13T12:20:23.551Z,0.53
2023-05-13T12:21:23.597Z,0.53
2023-05-13T12:22:23.601Z,0.52
2023-05-13T12:23:23.651Z,0.53
2023-05-13T12:24:23.684Z,0.52
2023-05-13T12:25:23.853Z,0.53
2023-05-13T12:26:23.744Z,0.52
2023-05-13T12:27:23.770Z,0.51
2023-05-13T12:28:23.799Z,0.52
2023-05-13T12:29:23.841Z,0.52
2023-05-13T12:30:23.868Z,0.53
2023-05-13T12:31:23.971Z,0.52
2023-05-13T12:32:23.971Z,0.52
2023-05-13T12:33:23.966Z,0.52
2023-05-13T12:34:24.029Z,0.53
2023-05-13T12:35:24.139Z,0.52
2023-05-13T12:36:24.150Z,0.52
2023-05-13T12:37:24.100Z,0.52
2023-05-13T12:38:24.204Z,0.53
2023-05-13T12:39:24.168Z,0.52
2023-05-13T12:40:24.196Z,0.52
2023-05-13T12:41:24.237Z,0.52
2023-05-13T12:42:24.276Z,0.51
2023-05-13T12:43:24.301Z,0.51
2023-05-13T12:44:24.307Z,0.52
2023-05-13T12:45:24.349Z,0.52
2023-05-13T12:46:24.443Z,0.51
2023-05-13T12:47:24.498Z,0.51
2023-05-13T12:48:24.430Z,0.52
2023-05-13T12:49:24.450Z,0.51
2023-05-13T12:50:24.489Z,0.52
2023-05-13T12:51:24.531Z,0.51
2023-05-13T12:52:24.549Z,0.51
2023-05-13T12:53:24.575Z,0.51
2023-05-13T12:54:24.640Z,0.51
2023-05-13T12:55:24.765Z,0.51
2023-05-13T12:56:24.673Z,0.52
2023-05-13T12:57:24.685Z,0.51
2023-05-13T12:58:24.721Z,0.52
2023-05-13T12:59:24.748Z,0.50
2023-05-13T13:00:24.785Z,0.51
2023-05-13T13:01:24.856Z,0.52
2023-05-13T13:02:24.938Z,0.51
2023-05-13T13:03:24.932Z,0.51
2023-05-13T13:04:24.887Z,0.51
2023-05-13T13:05:25.095Z,0.52
2023-05-13T13:06:24.932Z,0.51
2023-05-13T13:07:24.957Z,0.52
2023-05-13T13:08:24.984Z,0.52
2023-05-13T13:09:24.997Z,0.52
2023-05-13T13:10:25.052Z,0.51
2023-05-13T13:11:25.053Z,0.51
2023-05-13T13:12:25.065Z,0.51
2023-05-13T13:13:25.093Z,0.52
2023-05-13T13:14:25.114Z,0.51
2023-05-13T13:15:25.139Z,0.51
2023-05-13T13:16:25.205Z,0.52
2023-05-13T13:17:25.245Z,0.51
2023-05-13T13:18:25.234Z,0.52
2023-05-13T13:19:25.314Z,0.51